Flight Track Log - Related Links

Times and Time Zones

All times are in EDT time to prevent confusion due to time zone crossing. See the N440DM flight status page for this flight to view local times or setup timezone preferences in your user account.


Time Position Orientation Groundspeed Altitude Reporting Facility
EDT Latitude Longitude Course Direction KTS MPH feet Rate Location/Type
Mon 05:52:22 PM 41.2997 -81.9208 200° South 266 306 7,200  Level Cleveland Center
Mon 05:53:22 PM 41.2306 -81.9414 193° South 271 312 11,100 3,650 Climbing Cleveland Center
Mon 05:54:22 PM 41.1447 -81.9672 193° South 297 342 14,500 3,700 Climbing Cleveland Center
Mon 05:55:22 PM 41.0339 -82.0008 193° South 346 398 18,500 3,300 Climbing Cleveland Center
Mon 05:56:22 PM 40.9336 -82.0317 193° South 363 418 21,100 2,695 Climbing Cleveland Center
Mon 05:58:29 PM 40.7633 -82.1500 208° Southwest 353 406 26,900 2,635 Climbing Indianapolis Center
Mon 05:59:31 PM 40.6667 -82.2156 207° Southwest 382 440 29,400 2,758 Climbing Indianapolis Center
Mon 06:00:33 PM 40.5622 -82.2931 209° Southwest 371 427 32,600 1,742 Climbing Indianapolis Center
Mon 06:01:35 PM 40.4675 -82.3622 209° Southwest 382 440 33,000 293 Climbing Indianapolis Center
Mon 06:02:36 PM 40.3625 -82.4375 209° Southwest 416 479 33,200 488 Climbing Indianapolis Center
Mon 06:03:38 PM 40.2608 -82.5108 209° Southwest 418 481 34,000 435 Climbing Indianapolis Center
Mon 06:04:40 PM 40.1617 -82.5794 208° Southwest 403 464 34,100 823 Climbing Indianapolis Center
Mon 06:05:42 PM 40.0336 -82.5725 178° South 454 522 35,700 1,403 Climbing Indianapolis Center
Mon 06:06:44 PM 39.9031 -82.5539 174° South 465 535 37,000 1,113 Climbing Indianapolis Center
Mon 06:07:46 PM 39.7722 -82.5347 174° South 468 539 38,000 1,016 Climbing Indianapolis Center
Mon 06:08:48 PM 39.6411 -82.5181 174° South 466 536 39,100 919 Climbing Indianapolis Center
Mon 06:09:50 PM 39.5131 -82.5011 174° South 458 527 39,900 439 Climbing Indianapolis Center
Mon 06:10:51 PM 39.3583 -82.4797 174° South 471 542 40,000 49 Climbing Indianapolis Center
Mon 06:11:53 PM 39.2275 -82.4631 174° South 476 548 40,000  Level Indianapolis Center
Mon 06:12:55 PM 39.0981 -82.4442 174° South 470 541 40,000  Level Indianapolis Center
Mon 06:13:57 PM 38.9669 -82.4275 174° South 474 545 40,000  Level Indianapolis Center
Mon 06:14:59 PM 38.8372 -82.4100 174° South 471 542 40,000  Level Indianapolis Center
Mon 06:16:01 PM 38.7058 -82.3922 174° South 477 549 40,000  Level Indianapolis Center
Mon 06:17:03 PM 38.5506 -82.3717 174° South 470 541 40,000  Level Indianapolis Center
Mon 06:18:04 PM 38.4183 -82.3550 174° South 477 549 40,000  Level Indianapolis Center
Mon 06:19:06 PM 38.2889 -82.3381 174° South 472 543 40,000  Level Indianapolis Center
Mon 06:20:08 PM 38.1578 -82.3228 175° South 472 543 40,000  Level Indianapolis Center
Mon 06:21:10 PM 38.0119 -82.3008 173° South 475 547 40,000  Level Indianapolis Center
Mon 06:23:14 PM 37.7561 -82.2922 178° South 455 524 40,000  Level Indianapolis Center
Mon 06:24:16 PM 37.6336 -82.2969 182° South 439 505 40,000  Level Indianapolis Center
Mon 06:25:17 PM 37.5128 -82.3208 189° South 437 503 40,000  Level Indianapolis Center
Mon 06:26:19 PM 37.3672 -82.3414 186° South 446 513 40,000  Level Indianapolis Center
Mon 06:27:21 PM 37.2411 -82.3164 171° South 454 522 40,000  Level Indianapolis Center
Mon 06:28:23 PM 37.1158 -82.2931 172° South 452 520 40,000  Level Indianapolis Center
Mon 06:29:25 PM 36.9900 -82.2697 172° South 451 519 40,000  Level Indianapolis Center
Mon 06:30:27 PM 36.8653 -82.2483 172° South 447 514 40,000  Level Indianapolis Center
Mon 06:31:29 PM 36.7433 -82.2261 172° South 441 507 40,000  Level Indianapolis Center
Mon 06:32:31 PM 36.6214 -82.2050 172° South 440 506 40,000  Level Indianapolis Center
Mon 06:33:08 PM 36.5386 -82.1914 172° South 448 516 40,000  Level Atlanta Center
Mon 06:34:08 PM 36.4153 -82.1683 171° South 448 516 40,000  Level Atlanta Center
Mon 06:35:08 PM 36.2919 -82.1481 172° South 448 516 40,000  Level Atlanta Center
Mon 06:36:08 PM 36.1686 -82.1303 173° South 443 510 40,000  Level Atlanta Center
Mon 06:37:08 PM 36.0494 -82.1075 171° South 443 510 40,000  Level Atlanta Center
Mon 06:38:08 PM 35.9300 -82.0872 172° South 443 510 40,000  Level Atlanta Center
Mon 06:39:08 PM 35.8111 -82.0722 174° South 437 503 40,000  Level Atlanta Center
Mon 06:40:08 PM 35.6858 -82.0725 180° South 453 521 40,000  Level Atlanta Center
Mon 06:41:08 PM 35.5500 -82.0656 178° South 458 527 40,000  Level Atlanta Center
Mon 06:42:08 PM 35.4269 -82.0686 181° South 453 521 40,000  Level Atlanta Center
Mon 06:43:08 PM 35.3039 -82.0689 180° South 448 516 40,000  Level Atlanta Center
Mon 06:44:08 PM 35.1850 -82.0692 180° South 434 499 40,000  Level Atlanta Center
Mon 06:45:08 PM 35.0619 -82.0722 181° South 434 499 40,000  Level Atlanta Center
Mon 06:46:08 PM 34.9450 -82.0725 180° South 434 499 40,000  Level Atlanta Center
Mon 06:47:08 PM 34.8242 -82.0703 179° South 434 499 40,000  Level Atlanta Center
Mon 06:48:08 PM 34.7008 -82.0706 180° South 440 506 40,000  Level Atlanta Center
Mon 06:49:08 PM 34.5903 -82.0758 182° South 440 506 40,000  Level Atlanta Center
Mon 06:50:08 PM 34.4672 -82.0736 179° South 445 512 40,000  Level Atlanta Center
Mon 06:51:08 PM 34.3400 -82.0739 180° South 445 512 40,000  Level Atlanta Center
Mon 06:52:08 PM 34.2169 -82.0744 180° South 445 512 40,000  Level Atlanta Center
Mon 06:53:08 PM 34.0917 -82.0722 179° South 445 512 40,000  Level Atlanta Center
Mon 06:54:08 PM 33.9642 -82.0675 178° South 450 518 40,000  Level Atlanta Center
Mon 06:55:08 PM 33.8389 -82.0631 178° South 455 524 40,000  Level Atlanta Center
Mon 06:56:08 PM 33.6989 -82.0589 179° South 462 532 40,000  Level Atlanta Center
Mon 06:57:08 PM 33.5717 -82.0542 178° South 462 532 40,000  Level Atlanta Center
Mon 06:58:08 PM 33.4442 -82.0547 180° South 462 532 40,000  Level Atlanta Center
Mon 06:59:08 PM 33.3147 -82.0528 179° South 462 532 40,000  Level Atlanta Center
Mon 07:01:07 PM 33.0636 -82.0522 180° South 453 521 40,000  Level Jacksonville Center
Mon 07:02:07 PM 32.9361 -82.0511 180° South 458 527 40,000  Level Jacksonville Center
Mon 07:03:07 PM 32.8233 -82.0472 178° South 458 527 40,000  Level Jacksonville Center
Mon 07:04:08 PM 32.7003 -82.0483 180° South 458 527 40,000  Level Jacksonville Center
Mon 07:05:08 PM 32.5750 -82.0444 179° South 458 527 40,000  Level Jacksonville Center
Mon 07:06:07 PM 32.4517 -82.0408 179° South 458 527 40,000  Level Jacksonville Center
Mon 07:07:08 PM 32.3181 -82.0419 180° South 448 516 40,000  Level Jacksonville Center
Mon 07:08:08 PM 32.1928 -82.0383 179° South 442 509 40,000  Level Jacksonville Center
Mon 07:09:07 PM 32.0675 -82.0344 178° South 442 509 40,000  Level Jacksonville Center
Mon 07:10:08 PM 31.9444 -82.0283 178° South 449 517 40,000  Level Jacksonville Center
Mon 07:11:07 PM 31.8317 -82.0172 175° South 449 517 40,000  Level Jacksonville Center
Mon 07:12:07 PM 31.7078 -81.9425 153° Southeast 449 517 40,000  Level Jacksonville Center
Mon 07:13:08 PM 31.6278 -81.8458 134° Southeast 457 526 40,000  Level Jacksonville Center
Mon 07:14:08 PM 31.5286 -81.7300 135° Southeast 457 526 40,000  Level Jacksonville Center
Mon 07:15:07 PM 31.4378 -81.6217 134° Southeast 457 526 40,000  Level Jacksonville Center
Mon 07:16:07 PM 31.3553 -81.5303 137° Southeast 457 526 40,000  Level Jacksonville Center
Mon 07:17:07 PM 31.2625 -81.4269 136° Southeast 457 526 40,000  Level Jacksonville Center
Mon 07:18:07 PM 31.1611 -81.3314 141° Southeast 463 533 40,000  Level Jacksonville Center
Mon 07:19:07 PM 31.0556 -81.2411 144° Southeast 468 539 40,000  Level Jacksonville Center
Mon 07:20:08 PM 30.9356 -81.1753 155° Southeast 465 535 40,000  Level Jacksonville Center
Mon 07:21:07 PM 30.8117 -81.1269 161° South 465 535 40,000  Level Jacksonville Center
Mon 07:22:07 PM 30.6942 -81.0736 159° South 465 535 40,000  Level Jacksonville Center
Mon 07:23:07 PM 30.5700 -81.0203 160° South 465 535 40,000  Level Jacksonville Center
Mon 07:24:08 PM 30.4483 -80.9697 160° South 470 541 40,000  Level Jacksonville Center
Mon 07:25:07 PM 30.3158 -80.9147 160° South 470 541 40,000  Level Jacksonville Center
Mon 07:26:08 PM 30.1939 -80.8619 159° South 465 535 40,000  Level Jacksonville Center
Mon 07:27:07 PM 30.0700 -80.8117 161° South 465 535 40,000  Level Jacksonville Center
Mon 07:28:07 PM 29.9481 -80.7617 160° South 465 535 40,000  Level Jacksonville Center
Mon 07:29:08 PM 29.8283 -80.7117 160° South 465 535 40,000  Level Jacksonville Center
Mon 07:30:08 PM 29.7083 -80.6592 159° South 465 535 40,000  Level Jacksonville Center
Mon 07:31:08 PM 29.5886 -80.6094 160° South 465 535 40,000  Level Jacksonville Center
Mon 07:32:08 PM 29.4664 -80.5597 160° South 465 535 40,000  Level Jacksonville Center
Mon 07:33:05 PM 29.3494 -80.5106 160° South 461 531 40,000  Level Miami Center
Mon 07:34:06 PM 29.2278 -80.4589 160° South 481 554 40,000  Level Miami Center
Mon 07:35:06 PM 29.1058 -80.4097 161° South 481 554 40,000  Level Miami Center
Mon 07:36:05 PM 28.9819 -80.3583 160° South 476 548 40,000 -200 Level Miami Center
Mon 07:37:06 PM 28.8644 -80.3072 159° South 465 535 39,600 -1,140 Descending Miami Center
Mon 07:38:06 PM 28.7425 -80.2583 161° South 460 529 37,700 -1,950 Descending Miami Center
Mon 07:39:06 PM 28.6369 -80.2150 160° South 460 529 35,700 -1,800 Descending Miami Center
Mon 07:40:06 PM 28.5192 -80.1689 161° South 453 521 34,100 -850 Descending Miami Center
Mon 07:41:06 PM 28.3825 -80.1247 164° South 453 521 34,000 -700 Descending Miami Center
Mon 07:42:06 PM 28.2581 -80.0836 164° South 464 534 32,700 -1,000 Descending Miami Center
Mon 07:43:06 PM 28.1358 -80.0447 164° South 457 526 32,000 -350 Descending Miami Center
Mon 07:44:06 PM 28.0261 -80.0086 164° South 457 526 32,000 -100 Level Miami Center
Mon 07:45:06 PM 27.9039 -79.9675 163° South 452 520 31,800 -1,100 Descending Miami Center
Mon 07:46:06 PM 27.7772 -79.9289 165° South 462 532 29,800 -2,250 Descending Miami Center
Mon 07:47:06 PM 27.6508 -79.8833 162° South 462 532 27,300 -2,200 Descending Miami Center
Mon 07:48:06 PM 27.5264 -79.8450 165° South 446 513 25,400 -1,850 Descending Miami Center
Mon 07:49:06 PM 27.4228 -79.8119 164° South 447 514 23,600 -1,700 Descending Miami Center
Mon 07:50:06 PM 27.3128 -79.7764 164° South 426 490 22,000 -1,750 Descending Miami Center
Mon 07:51:06 PM 27.1964 -79.7431 166° South 405 466 20,100 -1,900 Descending Miami Center
Mon 07:52:06 PM 27.0947 -79.7103 164° South 390 449 18,200 -1,900 Descending Miami Center
Mon 07:53:06 PM 26.9972 -79.6797 164° South 385 443 16,300 -1,600 Descending Miami Center
Mon 07:54:06 PM 26.9058 -79.6544 166° South 369 425 15,000 -1,050 Descending Miami Center
Mon 07:55:06 PM 26.7972 -79.6611 183° South 362 417 14,200 -1,300 Descending Miami Center
Mon 07:56:06 PM 26.7064 -79.7053 203° Southwest 373 429 12,400 -1,850 Descending Miami Center
Mon 07:57:06 PM 26.5947 -79.7583 203° Southwest 397 457 10,500 -2,067 Descending Miami Center
Mon 07:57:36 PM 26.5419 -79.7850 204° Southwest 385 443 9,300 -2,100 Descending Miami Center
Mon 07:58:06 PM 26.5103 -79.7983 201° Southwest 391 450 8,400 -867 Descending Miami Center
Mon 07:59:06 PM 26.4197 -79.8422 203° Southwest 343 395 8,000 -700 Descending Miami Center
Mon 08:00:06 PM 26.3622 -79.8919 218° Southwest 283 326 7,000 -1,680 Descending Miami Center
Mon 08:00:21 PM 26.3508 -79.9333 253° West 314 361 5,900 -3,100 Descending Miami Center
Mon 08:01:06 PM 26.3372 -79.9933 256° West 291 335 3,900 -1,771 Descending Miami Center
Mon 08:02:06 PM 26.3211 -80.0600 255° West 275 316 2,800 -800 Descending Miami Center
Mon 08:03:06 PM 26.2822 -80.1144 231° Southwest 223 257 2,300 -385 Descending Miami Center
Mon 08:03:24 PM 26.2736 -80.1283 235° Southwest 171 197 2,300 -500 Level Miami Center
Mon 08:04:06 PM 26.2542 -80.1533 229° Southwest 184 212 1,800 -393 Descending Miami Center
Mon 08:04:25 PM 26.2433 -80.1714 236° Southwest 179 206 1,900  Climbing Miami Center
Mon 08:05:06 PM 26.2383 -80.2036 260° West 170 196 1,800 -300 Descending Miami Center
Mon 08:05:25 PM 26.2233 -80.2194 223° Southwest 175 201 1,600 -900 Descending Miami Center
Mon 08:06:06 PM 26.2008 -80.2097 159° South 129 148 900 -1,147 Descending Miami Center
Mon 08:06:33 PM 26.1925 -80.1978 128° Southeast 135 155 300 -700 Descending Miami Center
Mon 08:07:06 PM 26.1886 -80.1883 115° Southeast 94 108 200 -182 Descending Miami Center

Login

Don't have an account? Register now (free) for customized features, flight alerts, and more!